Time;durP1;ratioP1;P1;durP2;ratioP2;P2;SDS_P1;SDS_P2;PMS_P1;PMS_P2;Temp;Humidity;BMP_temperature;BMP_pressure;BME280_temperature;BME280_humidity;BME280_pressure;Samples;Min_cycle;Max_cycle;Signal;HPM_P1;HPM_P2
2022/02/06 00:01:17;;;;;;;;;7.25;5.50;;;;;8.49;66.02;101711.16;5095055;27;45413;-78
2022/02/06 00:03:42;;;;;;;;;3.00;3.00;;;;;8.47;66.21;101708.47;5096595;27;45480;-78
2022/02/06 00:06:08;;;;;;;;;3.50;3.50;;;;;8.58;66.26;101734.38;5096699;27;45296;-78
2022/02/06 00:08:33;;;;;;;;;5.25;4.00;;;;;8.58;66.29;101739.63;5096351;27;45571;-78
2022/02/06 00:10:59;;;;;;;;;7.00;4.75;;;;;8.51;66.35;101727.84;5096121;27;45444;-78
2022/02/06 00:13:24;;;;;;;;;3.75;3.00;;;;;8.36;66.50;101725.25;5096692;27;45469;-78
2022/02/06 00:15:50;;;;;;;;;6.00;6.00;;;;;8.10;66.34;101673.91;5096344;27;45439;-78
2022/02/06 00:18:15;;;;;;;;;5.00;4.75;;;;;8.05;66.24;101675.34;5096246;27;46703;-78
2022/02/06 00:20:54;;;;;;;;;3.75;3.00;;;;;8.31;67.08;101710.03;5096180;27;45344;-78
2022/02/06 00:23:23;;;;;;;;;4.50;3.50;;;;;8.26;66.82;101687.09;5096464;27;45730;-77
2022/02/06 00:28:37;;;;;;;;;3.25;3.25;;;;;8.25;67.19;101682.69;5095945;27;45988;-78
2022/02/06 00:31:29;;;;;;;;;6.00;3.75;;;;;8.01;67.28;101624.53;5095989;27;45762;-78
2022/02/06 00:39:10;;;;;;;;;4.75;3.50;;;;;8.36;67.33;101670.25;5095808;27;45424;-78
2022/02/06 00:41:37;;;;;;;;;5.00;4.00;;;;;8.44;67.52;101673.31;5095639;27;45469;-77
2022/02/06 00:44:04;;;;;;;;;3.50;3.00;;;;;8.45;67.15;101683.88;5096003;27;45544;-77
2022/02/06 00:46:36;;;;;;;;;3.00;3.00;;;;;8.25;67.11;101643.38;5096053;27;45354;-77
2022/02/06 00:49:15;;;;;;;;;2.50;2.50;;;;;8.45;67.13;101665.53;5095618;27;46542;-78
2022/02/06 00:51:56;;;;;;;;;4.50;4.25;;;;;8.36;67.17;101622.16;5095254;27;45361;-78
2022/02/06 00:54:22;;;;;;;;;2.00;2.00;;;;;8.44;67.34;101624.44;5095690;27;45486;-78
2022/02/06 00:56:47;;;;;;;;;5.00;2.00;;;;;8.56;67.08;101645.19;5095407;27;45220;-79
2022/02/06 00:59:13;;;;;;;;;4.00;3.50;;;;;8.41;67.08;101612.88;5095650;27;45366;-78
2022/02/06 01:01:41;;;;;;;;;5.75;3.50;;;;;8.42;67.01;101610.38;5095617;27;45417;-77
2022/02/06 01:04:08;;;;;;;;;5.25;4.00;;;;;8.43;67.31;101632.22;5095158;27;45540;-78
2022/02/06 01:06:33;;;;;;;;;3.00;3.00;;;;;8.38;67.34;101633.69;5095680;27;45369;-78
2022/02/06 01:08:59;;;;;;;;;2.50;2.50;;;;;8.42;67.56;101657.53;5095282;27;46210;-78
2022/02/06 01:11:24;;;;;;;;;2.33;2.00;;;;;8.18;67.34;101615.06;5095215;27;45467;-78
2022/02/06 01:16:32;;;;;;;;;6.50;6.50;;;;;8.33;67.46;101629.84;5095509;27;45350;-78
2022/02/06 01:19:02;;;;;;;;;3.50;3.50;;;;;8.31;67.61;101627.13;5093892;27;47029;-78
2022/02/06 01:24:22;;;;;;;;;3.00;3.00;;;;;8.47;68.07;101645.59;5095420;27;45467;-77
2022/02/06 01:34:20;;;;;;;;;5.50;3.75;;;;;8.39;67.90;101618.03;5095289;27;45360;-78
2022/02/06 01:36:50;;;;;;;;;2.25;2.25;;;;;8.44;67.71;101610.44;5094959;27;45656;-78
2022/02/06 01:42:03;;;;;;;;;2.00;2.00;;;;;8.57;67.76;101646.09;5094447;27;45440;-78
2022/02/06 02:01:10;;;;;;;;;2.25;2.00;;;;;8.58;67.95;101622.63;5094555;27;45351;-78
2022/02/06 02:03:43;;;;;;;;;2.50;2.50;;;;;8.31;67.57;101576.47;5094151;27;45309;-78
2022/02/06 02:06:32;;;;;;;;;1.50;1.50;;;;;8.34;67.87;101556.59;5093397;27;45348;-78
2022/02/06 02:09:28;;;;;;;;;3.75;3.75;;;;;8.25;67.83;101549.13;5094455;27;45598;-78
2022/02/06 02:12:29;;;;;;;;;2.75;2.75;;;;;8.34;67.43;101551.34;5093334;27;45568;-77
2022/02/06 02:33:35;;;;;;;;;2.00;1.75;;;;;8.24;67.85;101508.03;5094123;27;46041;-78
2022/02/06 02:42:58;;;;;;;;;1.00;1.00;;;;;8.35;67.62;101526.97;5093903;27;45278;-78
2022/02/06 02:46:53;;;;;;;;;2.00;2.00;;;;;8.34;68.01;101513.78;5093908;27;45447;-78
2022/02/06 02:49:21;;;;;;;;;2.00;2.00;;;;;8.35;67.90;101526.97;5091471;27;45793;-79
2022/02/06 02:51:57;;;;;;;;;3.25;3.00;;;;;8.35;68.08;101506.00;5088179;27;45655;-78
2022/02/06 02:54:26;;;;;;;;;3.00;3.00;;;;;8.24;68.05;101486.19;5090999;27;45715;-78
2022/02/06 02:57:05;;;;;;;;;3.50;3.00;;;;;8.57;68.21;101542.22;5086388;27;45794;-78
2022/02/06 02:59:57;;;;;;;;;2.50;2.50;;;;;8.52;68.13;101535.78;5090902;27;45662;-78
2022/02/06 03:02:22;;;;;;;;;1.25;1.00;;;;;8.53;68.25;101537.63;5088735;27;46985;-78
2022/02/06 03:04:52;;;;;;;;;2.75;2.25;;;;;8.58;68.57;101541.38;5091682;27;46656;-78
2022/02/06 03:07:18;;;;;;;;;3.50;2.75;;;;;8.56;68.31;101532.53;5090671;27;45929;-77
2022/02/06 03:09:45;;;;;;;;;3.50;3.00;;;;;8.37;68.50;101464.22;5090313;27;45318;-78
2022/02/06 03:12:13;;;;;;;;;3.00;2.00;;;;;8.64;68.65;101512.00;5090525;27;45672;-77
2022/02/06 03:14:47;;;;;;;;;3.00;2.00;;;;;8.43;68.79;101481.19;5093010;27;46237;-78
2022/02/06 03:17:21;;;;;;;;;2.00;2.00;;;;;8.53;68.96;101493.97;5090439;27;45503;-78
2022/02/06 03:19:54;;;;;;;;;3.00;3.00;;;;;8.48;69.16;101456.16;5091076;27;46157;-78
2022/02/06 03:22:24;;;;;;;;;3.75;3.00;;;;;8.55;69.01;101475.69;5088354;27;45565;-78
2022/02/06 03:24:55;;;;;;;;;2.75;2.75;;;;;8.67;69.09;101462.34;5087546;27;46513;-78
2022/02/06 03:27:20;;;;;;;;;2.50;2.50;;;;;8.57;69.00;101454.81;5092262;27;45531;-78
2022/02/06 03:29:45;;;;;;;;;3.00;2.33;;;;;8.60;69.31;101455.00;5093336;27;45619;-77
2022/02/06 03:32:11;;;;;;;;;2.25;2.25;;;;;8.48;69.46;101429.94;5093643;27;46094;-77
2022/02/06 03:34:36;;;;;;;;;5.00;3.00;;;;;8.58;69.48;101459.28;5091631;27;45912;-77
2022/02/06 03:37:02;;;;;;;;;5.25;3.00;;;;;8.40;69.35;101423.38;5094071;27;45630;-78
2022/02/06 03:39:29;;;;;;;;;2.50;2.00;;;;;8.41;69.74;101429.53;5093148;27;45603;-78
2022/02/06 03:42:06;;;;;;;;;2.25;2.00;;;;;8.41;69.76;101448.75;5093410;27;45694;-78
2022/02/06 03:44:59;;;;;;;;;3.00;2.00;;;;;8.34;70.16;101427.38;5091473;27;45386;-78
2022/02/06 03:47:23;;;;;;;;;2.25;2.00;;;;;8.57;70.01;101473.16;5091341;27;46195;-77
2022/02/06 03:50:03;;;;;;;;;3.75;3.50;;;;;8.36;69.96;101430.94;5093384;27;45588;-78
2022/02/06 03:52:35;;;;;;;;;6.50;5.75;;;;;8.25;70.02;101402.47;5090383;27;45392;-78
2022/02/06 03:55:00;;;;;;;;;3.25;2.75;;;;;8.48;70.01;101448.28;5091949;27;46303;-78
2022/02/06 03:57:26;;;;;;;;;3.50;3.50;;;;;8.57;69.91;101461.00;5091299;27;45455;-78
2022/02/06 03:59:51;;;;;;;;;3.25;2.50;;;;;8.47;70.17;101477.00;5091557;27;45655;-78
2022/02/06 04:02:16;;;;;;;;;3.25;3.00;;;;;8.34;70.35;101419.50;5092232;27;45791;-78
2022/02/06 04:04:42;;;;;;;;;2.00;2.00;;;;;8.41;70.08;101429.53;5091815;27;46863;-78
2022/02/06 04:07:11;;;;;;;;;2.00;2.00;;;;;8.39;70.27;101415.44;5092220;27;45620;-78
2022/02/06 04:09:44;;;;;;;;;3.00;2.00;;;;;8.55;70.49;101454.75;5092748;27;45653;-78
2022/02/06 04:12:13;;;;;;;;;3.00;3.00;;;;;8.38;70.25;101421.50;5085034;27;45620;-78
2022/02/06 04:14:52;;;;;;;;;3.50;2.75;;;;;8.30;70.52;101393.97;5092067;27;45555;-79
2022/02/06 04:17:21;;;;;;;;;3.50;3.00;;;;;8.43;70.29;101428.81;5090673;27;46102;-78
2022/02/06 04:19:46;;;;;;;;;3.50;3.00;;;;;8.44;70.56;101429.69;5091837;27;45670;-78
2022/02/06 04:22:12;;;;;;;;;4.00;4.00;;;;;8.45;70.16;101431.50;5094865;27;45790;-78
2022/02/06 04:24:40;;;;;;;;;3.75;3.50;;;;;8.31;70.29;101401.00;5093433;27;45719;-79
2022/02/06 04:27:06;;;;;;;;;4.50;2.00;;;;;8.51;70.36;101430.09;5093401;27;45811;-78
2022/02/06 04:29:31;;;;;;;;;2.00;1.75;;;;;8.39;70.33;101415.44;5094966;27;45576;-78
2022/02/06 04:31:58;;;;;;;;;2.33;2.33;;;;;8.37;70.41;101417.06;5097503;27;45466;-78
2022/02/06 04:34:24;;;;;;;;;3.25;3.00;;;;;8.20;70.26;101376.84;5097009;27;45674;-78
2022/02/06 04:37:49;;;;;;;;;2.00;2.00;;;;;8.42;70.62;101421.75;5093064;27;45728;-78
2022/02/06 04:40:00;;;;;;;;;5.75;3.00;;;;;8.33;70.80;101378.44;5093091;27;45504;-78
2022/02/06 04:51:01;;;;;;;;;4.50;4.00;;;;;8.30;71.00;101342.50;5096305;27;45559;-78
2022/02/06 05:30:20;;;;;;;;;2.50;2.00;;;;;8.18;71.38;101250.22;5092515;27;45939;-77
2022/02/06 05:35:21;;;;;;;;;3.25;3.00;;;;;8.53;71.48;101320.16;5095268;27;45792;-77
2022/02/06 05:37:46;;;;;;;;;3.00;3.00;;;;;8.33;71.46;101261.47;5094804;27;48126;-77
2022/02/06 05:40:12;;;;;;;;;4.00;3.00;;;;;8.40;71.57;101261.00;5094746;27;45659;-77
2022/02/06 05:42:37;;;;;;;;;4.00;3.00;;;;;8.38;71.20;101248.66;5086250;27;45453;-77
2022/02/06 05:45:03;;;;;;;;;2.00;2.00;;;;;8.47;71.60;101278.84;5094208;27;45848;-77
2022/02/06 05:47:29;;;;;;;;;2.00;2.00;;;;;8.42;71.37;101253.19;5086567;27;46388;-77
2022/02/06 05:49:55;;;;;;;;;3.25;3.00;;;;;8.51;71.53;101258.91;5084328;27;45405;-77
2022/02/06 05:52:23;;;;;;;;;2.00;2.00;;;;;8.48;71.42;101264.03;5094673;27;45474;-78
2022/02/06 05:54:48;;;;;;;;;2.75;2.00;;;;;8.57;71.56;101274.97;5093853;27;45506;-78
2022/02/06 05:57:14;;;;;;;;;2.00;2.00;;;;;8.34;71.44;101223.09;5094149;27;46817;-77
2022/02/06 05:59:40;;;;;;;;;1.25;0.75;;;;;8.49;71.45;101250.09;5094316;27;46647;-78
2022/02/06 06:02:05;;;;;;;;;3.75;2.75;;;;;8.43;71.76;101242.81;5093940;27;45437;-78
2022/02/06 06:04:30;;;;;;;;;3.00;2.25;;;;;8.54;71.76;101261.69;5095109;27;45502;-77
2022/02/06 06:06:56;;;;;;;;;2.00;2.00;;;;;8.43;71.65;101240.19;5093781;27;45449;-78
2022/02/06 06:09:21;;;;;;;;;2.25;2.00;;;;;8.41;71.80;101236.59;5094608;27;45689;-78
2022/02/06 06:11:47;;;;;;;;;2.25;2.25;;;;;8.37;71.78;101223.25;5091598;27;45710;-77
2022/02/06 06:14:12;;;;;;;;;2.00;2.00;;;;;8.50;71.83;101237.06;5094278;27;45325;-77
2022/02/06 06:16:37;;;;;;;;;2.00;2.00;;;;;8.46;72.11;101242.06;5096210;27;46399;-77
2022/02/06 06:19:04;;;;;;;;;3.00;3.00;;;;;8.52;72.16;101242.38;5097704;27;45468;-78
2022/02/06 06:21:36;;;;;;;;;2.00;2.00;;;;;8.42;72.10;101246.28;5091150;27;45682;-78
2022/02/06 06:24:01;;;;;;;;;2.50;2.50;;;;;8.36;72.20;101231.91;5092614;27;47006;-78
2022/02/06 06:26:30;;;;;;;;;2.50;2.50;;;;;8.13;72.12;101186.25;5092498;27;45492;-77
2022/02/06 06:28:55;;;;;;;;;2.50;2.50;;;;;8.33;72.49;101216.06;5092584;27;46139;-77
2022/02/06 06:31:21;;;;;;;;;2.00;2.00;;;;;8.49;72.29;101239.63;5091578;27;45571;-81
2022/02/06 06:33:47;;;;;;;;;1.25;1.25;;;;;8.43;72.13;101228.84;5092205;27;45395;-77
2022/02/06 06:36:12;;;;;;;;;2.00;2.00;;;;;8.38;72.67;101206.75;5095788;27;46889;-77
2022/02/06 06:38:38;;;;;;;;;2.00;2.00;;;;;8.40;72.20;101195.50;5091546;27;45697;-77
2022/02/06 06:41:04;;;;;;;;;2.75;2.00;;;;;8.39;72.58;101206.81;5090925;27;46991;-77
2022/02/06 06:43:30;;;;;;;;;3.00;2.00;;;;;8.49;72.53;101244.84;5092865;27;45430;-77
2022/02/06 06:45:57;;;;;;;;;2.00;2.00;;;;;8.49;72.48;101242.22;5099618;27;47139;-77
2022/02/06 06:48:22;;;;;;;;;3.00;2.00;;;;;8.34;72.41;101223.09;5078265;27;47019;-78
2022/02/06 06:50:48;;;;;;;;;1.25;1.25;;;;;8.39;72.71;101226.88;5109160;27;44771;-80
2022/02/06 06:53:17;;;;;;;;;1.25;1.00;;;;;8.41;72.72;101225.22;5116918;27;44826;-85
2022/02/06 06:55:44;;;;;;;;;2.00;2.00;;;;;8.53;72.76;101241.56;5114978;27;46136;-82
2022/02/06 06:58:24;;;;;;;;;0.00;0.00;;;;;8.39;72.48;101200.69;5105662;27;45275;-82
2022/02/06 07:00:57;;;;;;;;;1.50;1.25;;;;;8.40;72.55;101199.84;5115749;27;45321;-77
2022/02/06 07:03:35;;;;;;;;;1.75;0.75;;;;;8.56;72.50;101215.50;5115367;27;44901;-82
2022/02/06 07:06:04;;;;;;;;;2.00;2.00;;;;;8.36;72.48;101176.91;5105209;27;45345;-88
2022/02/06 07:08:30;;;;;;;;;3.00;2.00;;;;;7.95;72.49;101113.78;5098272;27;45564;-77
2022/02/06 07:10:55;;;;;;;;;2.75;2.00;;;;;8.26;72.57;101150.25;5105557;27;45062;-78
2022/02/06 07:13:23;;;;;;;;;1.00;1.00;;;;;8.55;73.05;101202.34;5104480;27;44987;-78
2022/02/06 07:15:50;;;;;;;;;2.50;2.50;;;;;8.48;72.41;101182.81;5114548;27;45392;-80
2022/02/06 07:18:15;;;;;;;;;2.00;1.00;;;;;8.40;72.82;101157.94;5118350;27;45402;-84
2022/02/06 07:20:41;;;;;;;;;3.50;2.25;;;;;8.41;72.98;101165.88;5105035;27;45132;-78
2022/02/06 07:23:08;;;;;;;;;1.00;1.00;;;;;8.48;73.40;101175.84;5104283;27;45297;-78
2022/02/06 07:25:35;;;;;;;;;2.00;1.75;;;;;8.64;73.29;101190.59;5117073;27;46178;-78
2022/02/06 07:28:04;;;;;;;;;2.00;1.00;;;;;8.57;73.32;101179.72;5095279;27;45298;-78
2022/02/06 07:30:29;;;;;;;;;2.25;2.00;;;;;8.49;73.26;101167.16;5108213;27;45333;-84
2022/02/06 07:32:55;;;;;;;;;2.25;1.75;;;;;8.65;73.38;101179.28;5097099;27;45682;-78
2022/02/06 07:35:20;;;;;;;;;3.25;2.50;;;;;8.62;73.15;101176.53;5102177;27;45097;-78
2022/02/06 07:37:55;;;;;;;;;2.00;2.00;;;;;8.74;73.13;101194.56;5120928;27;45804;-78
2022/02/06 07:40:22;;;;;;;;;3.00;2.00;;;;;8.67;73.29;101174.09;5102111;27;45623;-78
2022/02/06 07:42:47;;;;;;;;;3.00;2.75;;;;;8.67;73.18;101175.03;5099331;27;45525;-78
2022/02/06 07:45:14;;;;;;;;;1.00;1.00;;;;;8.83;73.04;101181.03;5104239;27;45419;-80
2022/02/06 07:47:42;;;;;;;;;2.00;1.50;;;;;8.69;72.84;101152.41;5101267;27;45714;-78
2022/02/06 07:50:09;;;;;;;;;0.75;0.75;;;;;8.68;72.75;101134.00;5104710;27;45228;-77
2022/02/06 07:52:34;;;;;;;;;2.00;2.00;;;;;8.72;72.85;101142.09;5102624;27;46257;-77
2022/02/06 07:55:00;;;;;;;;;1.25;1.00;;;;;8.89;72.66;101168.22;5098905;27;47039;-80
2022/02/06 07:57:26;;;;;;;;;2.50;2.00;;;;;8.85;72.89;101154.03;5105526;27;45107;-77
2022/02/06 07:59:51;;;;;;;;;1.75;1.75;;;;;8.73;72.65;101136.03;5098677;27;45684;-77
2022/02/06 08:02:17;;;;;;;;;0.75;0.75;;;;;8.94;72.97;101153.59;5101782;27;45085;-80
2022/02/06 08:04:46;;;;;;;;;1.00;0.00;;;;;8.94;72.70;101148.34;5105586;27;46343;-95
2022/02/06 08:07:11;;;;;;;;;3.00;1.00;;;;;8.77;72.72;101096.03;5106514;27;45214;-94
2022/02/06 08:12:12;;;;;;;;;3.00;1.25;;;;;9.00;72.80;101098.81;5094734;27;45387;-77
2022/02/06 08:17:15;;;;;;;;;0.75;0.50;;;;;9.21;72.72;101102.47;5101453;27;45979;-77
2022/02/06 08:19:41;;;;;;;;;1.50;1.50;;;;;9.15;72.43;101085.53;5124554;27;45325;-77
2022/02/06 08:22:06;;;;;;;;;0.00;0.00;;;;;9.13;72.47;101071.47;5107389;27;45042;-90
2022/02/06 08:24:31;;;;;;;;;2.75;2.00;;;;;9.24;72.43;101085.94;5102671;27;46199;-77
2022/02/06 08:26:57;;;;;;;;;1.00;1.00;;;;;9.26;72.55;101085.19;5103213;27;45325;-78
2022/02/06 08:29:24;;;;;;;;;1.75;1.00;;;;;9.28;72.60;101069.53;5106466;27;45362;-82
2022/02/06 08:31:49;;;;;;;;;2.00;1.25;;;;;9.22;72.75;101079.75;5101257;27;45075;-92
2022/02/06 08:34:14;;;;;;;;;2.50;1.25;;;;;9.15;73.13;101088.16;5096022;27;45537;-78
2022/02/06 08:36:40;;;;;;;;;1.50;1.50;;;;;9.18;73.62;101065.59;5096504;27;45471;-78
2022/02/06 08:39:05;;;;;;;;;2.00;1.00;;;;;9.30;73.53;101086.22;5096270;27;45400;-78
2022/02/06 08:41:30;;;;;;;;;1.00;1.00;;;;;9.27;74.00;101078.22;5085417;27;45659;-80
2022/02/06 08:43:56;;;;;;;;;4.50;4.00;;;;;9.18;74.03;101046.34;5091062;27;45443;-79
2022/02/06 08:46:21;;;;;;;;;4.00;3.33;;;;;9.03;74.11;101022.94;5095463;27;45332;-77
2022/02/06 08:48:46;;;;;;;;;7.00;6.50;;;;;9.16;75.26;101053.22;5095410;27;45680;-79
2022/02/06 08:51:12;;;;;;;;;7.75;6.50;;;;;9.04;74.79;101053.56;5096015;27;45394;-77
2022/02/06 08:53:37;;;;;;;;;2.25;2.25;;;;;9.02;74.89;101044.75;5094947;27;45492;-78
2022/02/06 08:56:02;;;;;;;;;4.00;2.25;;;;;8.99;77.12;101040.25;5095843;27;45546;-77
2022/02/06 08:58:28;;;;;;;;;4.00;3.25;;;;;8.94;77.11;101053.97;5099125;27;45441;-78
2022/02/06 09:00:53;;;;;;;;;7.00;6.50;;;;;8.86;77.32;101043.13;5100266;27;45373;-84
2022/02/06 09:03:20;;;;;;;;;4.00;3.00;;;;;8.85;78.24;101057.06;5095019;27;46183;-77
2022/02/06 09:05:46;;;;;;;;;2.75;2.75;;;;;8.79;78.73;101052.44;5104704;27;45377;-77
2022/02/06 09:08:11;;;;;;;;;1.00;0.00;;;;;8.74;78.02;101053.97;5096230;27;45425;-80
2022/02/06 09:10:36;;;;;;;;;3.00;2.00;;;;;8.59;78.53;101010.44;5095785;27;45605;-83
2022/02/06 09:13:04;;;;;;;;;1.00;1.00;;;;;8.50;78.99;100992.56;5095301;27;48059;-80
2022/02/06 09:15:29;;;;;;;;;2.50;2.00;;;;;8.73;78.92;101025.97;5099507;27;45365;-79
2022/02/06 09:17:55;;;;;;;;;12.50;10.25;;;;;8.68;79.59;101016.09;5096235;27;45997;-80
2022/02/06 09:20:21;;;;;;;;;8.00;7.00;;;;;8.70;90.99;101007.47;5095401;27;45409;-78
2022/02/06 09:22:46;;;;;;;;;7.00;5.25;;;;;8.88;91.57;100999.56;5106214;27;46325;-80
2022/02/06 09:25:12;;;;;;;;;3.00;3.00;;;;;9.07;91.86;101016.13;5111139;27;45651;-88
2022/02/06 09:27:38;;;;;;;;;2.50;2.50;;;;;8.78;92.50;100995.63;5103932;27;45509;-79
2022/02/06 09:30:06;;;;;;;;;4.00;3.00;;;;;8.91;92.78;101015.41;5104203;27;45645;-78
2022/02/06 09:37:26;;;;;;;;;8.25;7.00;;;;;9.19;93.00;101016.66;5086526;27;46397;-77
2022/02/06 09:39:52;;;;;;;;;2.75;2.75;;;;;9.25;92.61;101012.56;5084100;27;45937;-78
2022/02/06 09:42:19;;;;;;;;;10.00;9.00;;;;;9.32;92.44;101011.13;5084369;27;46617;-77
2022/02/06 09:44:47;;;;;;;;;13.75;11.00;;;;;9.16;92.73;100990.28;5074000;27;45951;-77
2022/02/06 09:47:16;;;;;;;;;5.25;5.25;;;;;9.42;92.79;101005.47;5085881;27;45684;-81
2022/02/06 09:49:43;;;;;;;;;5.00;4.00;;;;;9.27;93.04;100989.94;5084378;27;46267;-79
2022/02/06 09:52:09;;;;;;;;;5.25;5.25;;;;;9.33;92.89;100978.81;5083457;27;45652;-77
2022/02/06 09:54:34;;;;;;;;;5.25;4.00;;;;;9.33;93.02;100949.06;5089624;27;46089;-78
2022/02/06 09:57:10;;;;;;;;;0.33;0.33;;;;;9.88;92.97;101011.75;5099605;27;46147;-78
2022/02/06 09:59:38;;;;;;;;;1.50;1.50;;;;;9.59;92.70;100958.03;5099777;27;45475;-78
2022/02/06 10:02:07;;;;;;;;;4.75;3.00;;;;;9.72;92.19;101003.25;5096026;27;45313;-79
2022/02/06 10:04:35;;;;;;;;;3.00;2.50;;;;;9.99;92.91;100957.94;5093079;27;45323;-78
2022/02/06 10:07:11;;;;;;;;;4.00;4.00;;;;;9.62;92.85;101000.16;5089563;27;45417;-78
2022/02/06 10:09:57;;;;;;;;;1.25;0.75;;;;;9.61;89.38;100991.41;5079736;27;45357;-79
2022/02/06 10:12:23;;;;;;;;;3.00;3.00;;;;;9.61;87.38;100980.91;5089599;27;47321;-78
2022/02/06 10:14:49;;;;;;;;;4.75;3.75;;;;;9.51;86.88;100983.97;5074599;27;45738;-78
2022/02/06 10:17:15;;;;;;;;;5.50;4.00;;;;;9.44;86.74;100969.69;5106134;27;45458;-79
2022/02/06 10:19:55;;;;;;;;;7.00;4.00;;;;;9.49;86.15;100978.63;5072683;27;45410;-78
2022/02/06 10:22:37;;;;;;;;;3.50;3.50;;;;;9.39;86.11;100957.19;5072574;27;45560;-82
2022/02/06 10:25:08;;;;;;;;;2.00;2.00;;;;;9.39;85.57;100952.84;5074091;28;45916;-81
2022/02/06 10:27:56;;;;;;;;;4.75;4.00;;;;;9.48;85.71;100978.59;5076880;28;45560;-91
2022/02/06 10:30:37;;;;;;;;;8.00;6.50;;;;;9.53;86.35;101001.56;5088442;27;45468;-82
2022/02/06 10:33:12;;;;;;;;;9.25;8.50;;;;;9.56;86.29;100996.44;5087069;28;46145;-78
2022/02/06 10:35:41;;;;;;;;;8.50;8.50;;;;;9.40;86.28;100958.97;5101676;27;45707;-78
2022/02/06 10:38:28;;;;;;;;;10.25;9.50;;;;;9.53;86.13;100979.69;5088644;28;45362;-79
2022/02/06 10:41:02;;;;;;;;;7.00;5.00;;;;;9.71;85.99;100983.09;5103657;27;44854;-78
2022/02/06 10:43:28;;;;;;;;;7.25;7.25;;;;;9.76;85.88;100975.41;5083605;28;45329;-79
2022/02/06 10:46:29;;;;;;;;;9.00;8.00;;;;;9.85;85.60;100952.13;5120876;27;45442;-78
2022/02/06 10:49:10;;;;;;;;;10.00;8.00;;;;;10.13;85.08;100977.78;5086492;28;45282;-79
2022/02/06 10:51:44;;;;;;;;;4.50;4.25;;;;;10.17;84.44;100957.78;5103041;27;45430;-78
2022/02/06 10:54:16;;;;;;;;;11.75;10.50;;;;;10.08;83.69;100937.31;5084643;27;46091;-78
2022/02/06 10:57:13;;;;;;;;;9.25;9.25;;;;;10.25;82.19;100966.91;5087015;27;45786;-78
2022/02/06 10:59:48;;;;;;;;;13.75;13.75;;;;;10.24;81.06;100944.97;5083520;27;45547;-78
2022/02/06 11:02:22;;;;;;;;;8.00;6.75;;;;;10.29;80.50;100953.03;5098076;27;45263;-79
2022/02/06 11:05:22;;;;;;;;;5.50;5.00;;;;;10.18;80.26;100913.19;5104388;27;46480;-77
2022/02/06 11:08:00;;;;;;;;;3.00;2.50;;;;;10.41;79.61;100932.50;5099654;27;45936;-79
2022/02/06 11:10:30;;;;;;;;;6.50;6.50;;;;;10.50;79.61;100939.84;5096992;27;45513;-78
2022/02/06 11:13:02;;;;;;;;;4.75;3.00;;;;;10.61;79.10;100937.63;5096738;27;45337;-81
2022/02/06 11:15:45;;;;;;;;;6.75;5.75;;;;;10.58;79.05;100910.38;5096364;27;45632;-84
2022/02/06 11:18:16;;;;;;;;;4.25;4.25;;;;;10.53;78.54;100904.03;5102733;27;45764;-78
2022/02/06 11:21:03;;;;;;;;;6.25;4.50;;;;;10.72;78.39;100921.41;5099984;27;45306;-79
2022/02/06 11:23:37;;;;;;;;;2.50;2.50;;;;;10.74;78.21;100909.22;5099765;27;45266;-78
2022/02/06 11:26:10;;;;;;;;;3.50;2.00;;;;;10.69;78.08;100887.13;5106391;27;45952;-79
2022/02/06 11:28:36;;;;;;;;;2.00;1.25;;;;;10.79;77.79;100867.31;5106245;27;45430;-79
2022/02/06 11:31:01;;;;;;;;;3.75;2.75;;;;;10.82;77.52;100864.78;5101829;27;45396;-80
2022/02/06 11:33:27;;;;;;;;;7.50;6.25;;;;;10.94;77.47;100880.13;5096228;27;45566;-82
2022/02/06 11:36:01;;;;;;;;;5.00;3.00;;;;;11.01;77.41;100875.09;5102522;27;45300;-79
2022/02/06 11:44:50;;;;;;;;;7.50;5.25;;;;;10.96;76.85;100875.78;5093965;27;45445;-86
2022/02/06 11:47:27;;;;;;;;;6.50;6.00;;;;;10.93;76.84;100828.34;5102308;27;45512;-79
2022/02/06 11:49:56;;;;;;;;;3.00;2.75;;;;;10.92;76.35;100855.50;5099870;27;45461;-91
2022/02/06 11:52:21;;;;;;;;;4.00;4.00;;;;;10.80;76.37;100833.19;5104332;27;45573;-78
2022/02/06 11:54:52;;;;;;;;;4.50;3.50;;;;;10.96;76.43;100866.16;5108992;27;45644;-79
2022/02/06 11:57:25;;;;;;;;;3.25;3.00;;;;;11.02;76.19;100865.47;5099630;27;46448;-84
2022/02/06 12:00:03;;;;;;;;;4.00;3.00;;;;;11.01;76.21;100847.91;5096797;27;45549;-79
2022/02/06 12:02:31;;;;;;;;;2.00;2.00;;;;;10.88;76.08;100843.06;5100872;27;45528;-80
2022/02/06 12:05:11;;;;;;;;;3.00;2.50;;;;;10.90;76.23;100852.81;5103274;27;45510;-79
2022/02/06 12:07:51;;;;;;;;;3.75;2.25;;;;;10.89;76.36;100872.06;5105619;27;45558;-78
2022/02/06 12:10:20;;;;;;;;;3.50;1.50;;;;;10.78;76.33;100824.34;5100783;27;45435;-86
2022/02/06 12:12:49;;;;;;;;;2.50;1.75;;;;;10.99;76.32;100857.50;5102332;27;45506;-89
2022/02/06 12:15:30;;;;;;;;;3.00;2.25;;;;;11.09;76.60;100856.97;5094464;27;45811;-80
2022/02/06 12:18:05;;;;;;;;;1.00;1.00;;;;;11.11;76.36;100857.91;5089721;27;46568;-89
2022/02/06 12:20:53;;;;;;;;;2.25;2.00;;;;;11.02;76.67;100818.16;5079998;28;45846;-84
2022/02/06 12:23:42;;;;;;;;;2.00;2.00;;;;;11.48;75.93;100859.16;5082667;27;45337;-89
2022/02/06 12:26:31;;;;;;;;;3.00;2.00;;;;;11.52;75.43;100854.00;5097738;27;45329;-80
2022/02/06 12:28:57;;;;;;;;;2.75;2.00;;;;;11.51;75.45;100862.75;5102435;27;45500;-89
2022/02/06 12:31:28;;;;;;;;;2.25;2.00;;;;;11.46;75.48;100819.59;5100070;27;45656;-80
2022/02/06 12:37:07;;;;;;;;;4.25;2.75;;;;;11.72;75.01;100824.78;5099287;27;45487;-78
2022/02/06 12:39:35;;;;;;;;;4.00;4.00;;;;;11.71;74.63;100816.00;5086344;27;48304;-82
2022/02/06 12:42:03;;;;;;;;;3.25;3.00;;;;;11.64;74.52;100792.97;5091098;27;45757;-86
2022/02/06 12:44:30;;;;;;;;;2.00;1.00;;;;;11.42;74.27;100777.34;5102934;27;45432;-80
2022/02/06 12:46:59;;;;;;;;;2.00;1.00;;;;;11.55;74.29;100796.22;5093689;27;45676;-87
2022/02/06 12:49:34;;;;;;;;;2.75;2.00;;;;;11.48;74.57;100772.31;5094568;27;47050;-88
2022/02/06 12:52:01;;;;;;;;;2.00;2.00;;;;;11.65;74.45;100802.66;5097460;27;46036;-85
2022/02/06 12:54:27;;;;;;;;;1.75;1.75;;;;;11.53;74.26;100797.03;5100563;27;45503;-80
2022/02/06 12:56:57;;;;;;;;;0.00;0.00;;;;;11.45;74.25;100780.97;5099314;27;45417;-80
2022/02/06 12:59:24;;;;;;;;;1.00;0.25;;;;;11.45;74.27;100774.81;5096365;27;47588;-81
2022/02/06 13:01:50;;;;;;;;;2.25;2.00;;;;;11.61;74.31;100801.66;5095893;27;46233;-93
2022/02/06 13:04:18;;;;;;;;;2.25;1.75;;;;;11.50;74.31;100773.22;5098828;27;45596;-78
2022/02/06 13:06:47;;;;;;;;;2.25;1.00;;;;;11.57;74.16;100799.78;5097936;27;45356;-79
2022/02/06 13:09:25;;;;;;;;;2.00;2.00;;;;;11.66;74.13;100788.66;5095024;27;46969;-90
2022/02/06 13:15:25;;;;;;;;;2.75;2.00;;;;;11.50;74.39;100762.69;5080315;27;45371;-79
2022/02/06 13:18:14;;;;;;;;;2.00;2.00;;;;;11.58;74.59;100775.25;5089733;27;45547;-79
2022/02/06 13:23:29;;;;;;;;;1.75;1.50;;;;;11.61;75.13;100777.06;5096261;27;45929;-83
2022/02/06 13:26:09;;;;;;;;;1.25;1.25;;;;;11.65;74.95;100792.13;5095193;27;45326;-78
2022/02/06 13:39:09;;;;;;;;;3.00;2.00;;;;;10.96;75.57;100703.13;5095184;27;45543;-86
2022/02/06 13:41:34;;;;;;;;;2.00;1.75;;;;;11.21;76.03;100770.56;5094747;27;45327;-80
2022/02/06 13:44:02;;;;;;;;;3.00;3.00;;;;;11.21;77.02;100748.63;5091836;27;45515;-78
2022/02/06 13:46:34;;;;;;;;;3.75;3.25;;;;;11.13;77.83;100752.75;5095308;27;45496;-85
2022/02/06 13:49:00;;;;;;;;;2.00;2.00;;;;;10.81;77.07;100690.38;5095308;27;45533;-77
2022/02/06 13:51:30;;;;;;;;;2.00;2.00;;;;;10.94;77.50;100709.19;5095196;27;45467;-82
2022/02/06 13:54:01;;;;;;;;;2.25;2.25;;;;;11.32;78.15;100778.78;5095076;27;45867;-85
2022/02/06 13:56:28;;;;;;;;;2.00;2.00;;;;;11.17;78.01;100765.16;5094954;27;45473;-80
2022/02/06 13:59:10;;;;;;;;;2.50;1.00;;;;;10.62;77.54;100642.41;5095186;27;45524;-86
2022/02/06 14:01:36;;;;;;;;;1.25;1.00;;;;;11.30;77.51;100730.50;5095852;27;46855;-80
2022/02/06 14:04:02;;;;;;;;;2.00;1.75;;;;;10.75;77.56;100641.97;5094987;27;45447;-77
2022/02/06 14:06:39;;;;;;;;;2.00;2.00;;;;;10.85;77.43;100649.31;5095220;27;45433;-82
2022/02/06 14:11:38;;;;;;;;;1.50;1.50;;;;;11.34;77.07;100693.81;5093736;27;45583;-87
2022/02/06 14:14:52;;;;;;;;;1.50;1.00;;;;;11.61;76.63;100708.63;5094872;27;45514;-82
2022/02/06 14:17:33;;;;;;;;;4.50;2.00;;;;;11.42;76.68;100658.94;5080886;27;45433;-81
2022/02/06 14:20:11;;;;;;;;;2.00;1.25;;;;;11.64;76.61;100682.41;5094742;27;45506;-83